createdAt,value
2018-07-17T00:01:11.170Z,5.43
2018-07-17T00:03:40.646Z,6.13
2018-07-17T00:06:10.290Z,5.87
2018-07-17T00:08:39.065Z,5.67
2018-07-17T00:11:07.877Z,6.17
2018-07-17T00:13:37.422Z,5.70
2018-07-17T00:16:06.672Z,6.20
2018-07-17T00:18:36.353Z,5.63
2018-07-17T00:21:06.078Z,5.97
2018-07-17T00:23:35.228Z,5.87
2018-07-17T00:26:04.882Z,6.47
2018-07-17T00:28:34.067Z,5.73
2018-07-17T00:31:03.627Z,6.43
2018-07-17T00:33:32.474Z,5.90
2018-07-17T00:36:01.323Z,6.70
2018-07-17T00:38:30.796Z,5.40
2018-07-17T00:40:59.544Z,6.03
2018-07-17T00:43:28.290Z,6.17
2018-07-17T00:45:57.990Z,6.67
2018-07-17T00:48:26.739Z,5.03
2018-07-17T00:50:55.534Z,6.23
2018-07-17T00:53:24.333Z,5.93
2018-07-17T00:55:54.053Z,5.57
2018-07-17T00:58:22.763Z,5.93
2018-07-17T01:00:50.575Z,5.57
2018-07-17T01:03:26.022Z,6.27
2018-07-17T01:06:00.209Z,6.30
2018-07-17T01:08:34.954Z,6.20
2018-07-17T01:11:08.923Z,6.33
2018-07-17T01:13:59.848Z,5.83
2018-07-17T01:16:28.664Z,5.97
2018-07-17T01:18:58.433Z,5.90
2018-07-17T01:21:27.210Z,6.17
2018-07-17T01:23:55.988Z,6.57
2018-07-17T01:26:25.332Z,6.30
2018-07-17T01:28:54.094Z,6.03
2018-07-17T01:31:23.353Z,6.20
2018-07-17T01:33:52.682Z,6.73
2018-07-17T01:36:21.418Z,6.47
2018-07-17T01:38:50.258Z,6.50
2018-07-17T01:41:19.026Z,6.67
2018-07-17T01:43:48.338Z,6.77
2018-07-17T01:46:17.206Z,6.60
2018-07-17T01:48:46.024Z,6.20
2018-07-17T01:51:14.808Z,6.67
2018-07-17T01:53:43.615Z,6.47
2018-07-17T01:56:13.152Z,6.73
2018-07-17T01:58:41.929Z,6.30
2018-07-17T02:01:10.646Z,6.57
2018-07-17T02:03:40.194Z,6.43
2018-07-17T02:06:09.727Z,6.50
2018-07-17T02:08:38.486Z,7.07
2018-07-17T02:11:07.289Z,5.83
2018-07-17T02:13:37.318Z,7.30
2018-07-17T02:16:06.430Z,6.77
2018-07-17T02:18:36.557Z,6.90
2018-07-17T02:21:05.695Z,6.63
2018-07-17T02:23:35.865Z,6.07
2018-07-17T02:26:05.479Z,6.70
2018-07-17T02:28:34.726Z,6.43
2018-07-17T02:31:03.738Z,7.33
2018-07-17T02:33:32.563Z,6.90
2018-07-17T02:36:01.355Z,7.63
2018-07-17T02:38:30.246Z,6.43
2018-07-17T02:40:59.326Z,8.00
2018-07-17T02:43:28.278Z,7.43
2018-07-17T02:45:57.700Z,6.80
2018-07-17T02:48:26.465Z,6.93
2018-07-17T02:50:55.218Z,6.33
2018-07-17T02:53:24.079Z,6.90
2018-07-17T02:55:53.770Z,7.07
2018-07-17T02:58:22.547Z,7.60
2018-07-17T03:00:51.314Z,5.97
2018-07-17T03:03:21.012Z,6.60
2018-07-17T03:05:49.771Z,7.10
2018-07-17T03:08:18.925Z,6.27
2018-07-17T03:10:47.666Z,6.80
2018-07-17T03:13:16.465Z,6.47
2018-07-17T03:15:45.306Z,6.43
2018-07-17T03:18:14.643Z,5.70
2018-07-17T03:20:43.372Z,6.10
2018-07-17T03:23:13.622Z,6.73
2018-07-17T03:25:43.035Z,7.03
2018-07-17T03:28:11.771Z,6.83
2018-07-17T03:30:40.554Z,6.20
2018-07-17T03:33:09.311Z,6.63
2018-07-17T03:35:38.214Z,6.30
2018-07-17T03:38:07.407Z,6.63
2018-07-17T03:40:36.396Z,6.37
2018-07-17T03:43:05.490Z,7.40
2018-07-17T03:45:34.771Z,6.90
2018-07-17T03:48:03.853Z,6.87
2018-07-17T03:50:33.730Z,6.50
2018-07-17T03:53:02.614Z,6.83
2018-07-17T03:55:32.310Z,6.43
2018-07-17T03:58:02.049Z,7.40
2018-07-17T04:00:30.799Z,7.00
2018-07-17T04:03:00.322Z,6.90
2018-07-17T04:05:29.928Z,6.73
2018-07-17T04:07:59.507Z,7.17
2018-07-17T04:10:28.333Z,7.30
2018-07-17T04:12:57.134Z,7.83
2018-07-17T04:15:25.963Z,6.70
2018-07-17T04:17:55.855Z,6.70
2018-07-17T04:20:24.615Z,6.63
2018-07-17T04:22:54.401Z,7.73
2018-07-17T04:25:23.896Z,7.10
2018-07-17T04:27:52.656Z,7.67
2018-07-17T04:30:21.398Z,7.73
2018-07-17T04:32:50.207Z,7.80
2018-07-17T04:35:18.943Z,7.60
2018-07-17T04:37:47.858Z,7.80
2018-07-17T04:40:16.822Z,7.27
2018-07-17T04:42:45.623Z,7.47
2018-07-17T04:45:14.388Z,7.83
2018-07-17T04:47:43.219Z,7.93
2018-07-17T04:50:12.253Z,8.40
2018-07-17T04:52:41.047Z,8.23
2018-07-17T04:55:10.855Z,8.43
2018-07-17T04:57:40.215Z,9.73
2018-07-17T05:00:09.087Z,8.13
2018-07-17T05:02:38.713Z,8.07
2018-07-17T05:05:08.776Z,9.67
2018-07-17T05:07:38.362Z,8.30
2018-07-17T05:10:07.162Z,9.03
2018-07-17T05:12:36.854Z,8.93
2018-07-17T05:15:06.006Z,9.80
2018-07-17T05:17:34.962Z,9.40
2018-07-17T05:20:04.891Z,10.30
2018-07-17T05:22:34.954Z,10.33
2018-07-17T05:25:04.919Z,10.40
2018-07-17T05:27:33.819Z,9.70
2018-07-17T05:30:02.653Z,10.03
2018-07-17T05:32:31.502Z,9.93
2018-07-17T05:35:00.347Z,10.07
2018-07-17T05:37:29.246Z,9.47
2018-07-17T05:39:58.063Z,10.53
2018-07-17T05:42:26.903Z,8.97
2018-07-17T05:44:55.641Z,8.87
2018-07-17T05:47:24.426Z,9.07
2018-07-17T05:49:53.461Z,9.07
2018-07-17T05:52:22.226Z,8.77
2018-07-17T05:54:51.611Z,9.17
2018-07-17T05:57:21.098Z,8.63
2018-07-17T05:59:49.908Z,8.83
2018-07-17T06:02:19.093Z,8.37
2018-07-17T06:04:48.426Z,9.03
2018-07-17T06:07:17.955Z,9.03
2018-07-17T06:09:46.695Z,8.23
2018-07-17T06:12:15.446Z,9.07
2018-07-17T06:14:44.254Z,9.10
2018-07-17T06:17:12.998Z,8.03
2018-07-17T06:19:42.330Z,9.37
2018-07-17T06:22:11.681Z,9.93
2018-07-17T06:24:41.005Z,8.37
2018-07-17T06:27:10.423Z,9.07
2018-07-17T06:29:39.203Z,8.93
2018-07-17T06:32:08.022Z,8.90
2018-07-17T06:34:36.839Z,9.27
2018-07-17T06:37:06.011Z,8.47
2018-07-17T06:39:35.154Z,8.97
2018-07-17T06:42:04.968Z,8.70
2018-07-17T06:44:34.100Z,9.80
2018-07-17T06:47:03.054Z,8.63
2018-07-17T06:49:31.861Z,9.17
2018-07-17T06:52:00.728Z,8.50
2018-07-17T06:54:29.503Z,8.67
2018-07-17T06:56:58.834Z,8.63
2018-07-17T06:59:27.654Z,9.33
2018-07-17T07:01:57.510Z,8.57
2018-07-17T07:04:26.959Z,8.53
2018-07-17T07:06:56.655Z,9.23
2018-07-17T07:09:25.403Z,10.43
2018-07-17T07:11:54.152Z,8.90
2018-07-17T07:14:22.914Z,9.63
2018-07-17T07:16:51.854Z,9.17
2018-07-17T07:19:21.566Z,10.20
2018-07-17T07:21:50.329Z,9.93
2018-07-17T07:24:19.855Z,9.97
2018-07-17T07:26:49.573Z,9.13
2018-07-17T07:29:18.352Z,8.77
2018-07-17T07:31:47.099Z,9.03
2018-07-17T07:34:15.923Z,9.13
2018-07-17T07:36:44.672Z,8.90
2018-07-17T07:39:13.666Z,9.23
2018-07-17T07:41:42.424Z,9.00
2018-07-17T07:44:11.164Z,9.07
2018-07-17T07:46:40.233Z,9.43
2018-07-17T07:49:09.075Z,7.87
2018-07-17T07:51:38.016Z,8.10
2018-07-17T07:54:06.915Z,7.90
2018-07-17T07:56:36.807Z,8.63
2018-07-17T07:59:05.868Z,7.50
2018-07-17T08:01:36.241Z,8.20
2018-07-17T08:04:06.146Z,7.70
2018-07-17T08:06:37.689Z,8.03
2018-07-17T08:09:08.019Z,8.07
2018-07-17T08:11:36.913Z,8.37
2018-07-17T08:14:06.103Z,7.70
2018-07-17T08:16:37.105Z,8.13
2018-07-17T08:19:06.516Z,8.17
2018-07-17T08:21:36.402Z,8.83
2018-07-17T08:24:06.422Z,8.07
2018-07-17T08:26:36.577Z,8.00
2018-07-17T08:29:05.705Z,7.27
2018-07-17T08:31:34.678Z,7.53
2018-07-17T08:34:03.761Z,7.70
2018-07-17T08:36:32.581Z,7.73
2018-07-17T08:39:01.542Z,8.07
2018-07-17T08:41:30.404Z,7.67
2018-07-17T08:43:59.166Z,8.17
2018-07-17T08:46:27.971Z,7.73
2018-07-17T08:48:56.986Z,8.43
2018-07-17T08:51:26.217Z,7.73
2018-07-17T08:53:55.022Z,8.27
2018-07-17T08:56:24.516Z,8.60
2018-07-17T08:58:53.331Z,8.40
2018-07-17T09:01:22.169Z,9.43
2018-07-17T09:03:52.212Z,8.60
2018-07-17T09:06:21.915Z,9.50
2018-07-17T09:08:50.727Z,9.13
2018-07-17T09:11:19.619Z,9.27
2018-07-17T09:13:48.441Z,8.67
2018-07-17T09:16:17.236Z,9.90
2018-07-17T09:18:46.683Z,9.47
2018-07-17T09:21:15.446Z,9.30
2018-07-17T09:23:44.874Z,10.73
2018-07-17T09:26:15.611Z,10.87
2018-07-17T09:28:44.994Z,10.43
2018-07-17T09:31:13.763Z,11.70
2018-07-17T09:33:42.615Z,10.67
2018-07-17T09:36:11.446Z,11.63
2018-07-17T09:38:40.334Z,10.83
2018-07-17T09:41:09.168Z,10.97
2018-07-17T09:43:37.964Z,10.90
2018-07-17T09:46:06.865Z,10.43
2018-07-17T09:48:36.083Z,9.77
2018-07-17T09:51:06.356Z,10.97
2018-07-17T09:53:36.199Z,10.10
2018-07-17T09:56:05.945Z,11.47
2018-07-17T09:58:35.076Z,10.67
2018-07-17T10:01:09.144Z,9.63
2018-07-17T10:03:38.626Z,9.77
2018-07-17T10:06:07.511Z,9.70
2018-07-17T10:08:37.169Z,10.47
2018-07-17T10:11:06.640Z,9.57
2018-07-17T10:13:35.944Z,10.57
2018-07-17T10:16:05.164Z,9.37
2018-07-17T10:18:35.054Z,10.70
2018-07-17T10:21:04.219Z,10.50
2018-07-17T10:23:34.800Z,9.30
2018-07-17T10:26:06.055Z,9.00
2018-07-17T10:28:35.053Z,9.20
2018-07-17T10:31:04.184Z,9.53
2018-07-17T10:33:33.066Z,9.80
2018-07-17T10:36:01.855Z,9.67
2018-07-17T10:38:30.744Z,8.90
2018-07-17T10:40:59.591Z,8.90
2018-07-17T10:43:28.426Z,9.00
2018-07-17T10:45:57.260Z,9.20
2018-07-17T10:48:26.156Z,9.30
2018-07-17T10:50:55.128Z,9.07
2018-07-17T10:53:24.148Z,9.60
2018-07-17T10:55:53.956Z,8.87
2018-07-17T10:58:22.766Z,8.87
2018-07-17T11:00:51.531Z,10.20
2018-07-17T11:03:20.960Z,10.00
2018-07-17T11:05:49.754Z,9.33
2018-07-17T11:08:19.129Z,10.10
2018-07-17T11:10:47.935Z,10.13
2018-07-17T11:13:16.776Z,10.50
2018-07-17T11:15:45.606Z,9.87
2018-07-17T11:18:15.251Z,9.93
2018-07-17T11:20:44.010Z,10.30
2018-07-17T11:23:13.472Z,10.47
2018-07-17T11:25:43.306Z,9.73
2018-07-17T11:28:12.134Z,9.90
2018-07-17T11:30:40.911Z,10.53
2018-07-17T11:33:09.828Z,10.97
2018-07-17T11:35:38.635Z,10.80
2018-07-17T11:38:08.789Z,11.23
2018-07-17T11:40:38.271Z,11.10
2018-07-17T11:43:07.542Z,10.43
2018-07-17T11:45:36.723Z,10.70
2018-07-17T11:48:05.940Z,10.70
2018-07-17T11:50:34.948Z,10.53
2018-07-17T11:53:03.823Z,11.20
2018-07-17T11:55:33.655Z,10.27
2018-07-17T11:58:03.313Z,10.87
2018-07-17T12:00:32.157Z,11.00
2018-07-17T12:03:01.535Z,11.73
2018-07-17T12:05:31.276Z,10.53
2018-07-17T12:08:00.712Z,10.90
2018-07-17T12:10:29.495Z,12.03
2018-07-17T12:12:58.331Z,11.40
2018-07-17T12:15:27.120Z,10.67
2018-07-17T12:17:56.873Z,11.73
2018-07-17T12:20:25.852Z,9.90
2018-07-17T12:22:55.294Z,10.60
2018-07-17T12:25:24.533Z,10.97
2018-07-17T12:27:53.322Z,10.90
2018-07-17T12:30:22.106Z,10.83
2018-07-17T12:32:51.151Z,10.50
2018-07-17T12:35:19.925Z,9.57
2018-07-17T12:37:48.841Z,10.33
2018-07-17T12:40:17.817Z,10.23
2018-07-17T12:42:47.059Z,10.87
2018-07-17T12:45:15.862Z,10.10
2018-07-17T12:47:44.731Z,10.50
2018-07-17T12:50:13.828Z,9.73
2018-07-17T12:52:42.615Z,10.60
2018-07-17T12:55:12.531Z,10.53
2018-07-17T12:57:42.150Z,10.30
2018-07-17T13:00:10.925Z,10.90
2018-07-17T13:02:40.383Z,10.70
2018-07-17T13:05:09.702Z,10.57
2018-07-17T13:07:39.310Z,10.77
2018-07-17T13:10:08.519Z,10.97
2018-07-17T13:12:37.771Z,10.90
2018-07-17T13:15:07.226Z,10.50
2018-07-17T13:17:36.783Z,11.03
2018-07-17T13:20:07.056Z,9.77
2018-07-17T13:22:39.428Z,10.83
2018-07-17T13:25:09.183Z,10.70
2018-07-17T13:27:38.272Z,11.10
2018-07-17T13:30:08.748Z,11.27
2018-07-17T13:32:37.986Z,10.00
2018-07-17T13:35:07.633Z,10.43
2018-07-17T13:37:36.754Z,10.20
2018-07-17T13:40:06.348Z,10.00
2018-07-17T13:42:35.250Z,9.70
2018-07-17T13:45:04.146Z,10.10
2018-07-17T13:47:32.968Z,10.37
2018-07-17T13:50:02.005Z,9.97
2018-07-17T13:52:30.830Z,9.03
2018-07-17T13:55:01.001Z,9.07
2018-07-17T13:57:30.767Z,9.00
2018-07-17T13:59:59.610Z,10.73
2018-07-17T14:02:29.033Z,9.40
2018-07-17T14:04:58.423Z,9.27
2018-07-17T14:07:27.876Z,9.70
2018-07-17T14:09:56.673Z,9.67
2018-07-17T14:12:25.607Z,9.27
2018-07-17T14:14:54.362Z,9.43
2018-07-17T14:17:23.179Z,9.13
2018-07-17T14:19:53.046Z,10.20
2018-07-17T14:22:22.816Z,9.20
2018-07-17T14:24:52.121Z,9.80
2018-07-17T14:27:20.911Z,8.80
2018-07-17T14:29:50.037Z,10.07
2018-07-17T14:32:18.900Z,10.13
2018-07-17T14:34:47.706Z,9.77
2018-07-17T14:37:16.601Z,8.77
2018-07-17T14:39:46.506Z,10.23
2018-07-17T14:42:15.375Z,9.37
2018-07-17T14:44:44.170Z,9.47
2018-07-17T14:47:13.018Z,9.20
2018-07-17T14:49:44.092Z,9.07
2018-07-17T14:52:12.942Z,9.23
2018-07-17T14:54:42.492Z,8.23
2018-07-17T14:57:12.227Z,8.83
2018-07-17T14:59:41.068Z,8.40
2018-07-17T15:02:10.654Z,9.13
2018-07-17T15:04:40.608Z,8.63
2018-07-17T15:07:10.018Z,7.90
2018-07-17T15:09:39.243Z,7.87
2018-07-17T15:12:08.194Z,7.77
2018-07-17T15:14:37.237Z,7.87
2018-07-17T15:17:06.840Z,7.80
2018-07-17T15:19:36.452Z,7.43
2018-07-17T15:22:05.632Z,8.10
2018-07-17T15:24:35.898Z,8.50
2018-07-17T15:27:05.967Z,8.27
2018-07-17T15:29:35.122Z,8.50
2018-07-17T15:32:03.956Z,7.63
2018-07-17T15:34:32.710Z,7.30
2018-07-17T15:37:01.454Z,7.87
2018-07-17T15:39:30.314Z,6.77
2018-07-17T15:41:59.130Z,7.47
2018-07-17T15:44:27.931Z,6.73
2018-07-17T15:46:56.701Z,6.97
2018-07-17T15:49:25.500Z,6.97
2018-07-17T15:51:54.467Z,8.50
2018-07-17T15:54:23.233Z,7.77
2018-07-17T15:56:52.781Z,7.80
2018-07-17T15:59:21.601Z,7.93
2018-07-17T16:01:51.010Z,8.70
2018-07-17T16:04:20.390Z,7.50
2018-07-17T16:06:51.138Z,8.07
2018-07-17T16:09:19.923Z,7.37
2018-07-17T16:11:48.701Z,7.27
2018-07-17T16:14:17.866Z,6.67
2018-07-17T16:16:46.339Z,7.20
2018-07-17T16:19:15.744Z,7.10
2018-07-17T16:21:45.009Z,7.57
2018-07-17T16:24:14.762Z,7.17
2018-07-17T16:26:44.339Z,7.00
2018-07-17T16:29:13.099Z,7.33
2018-07-17T16:31:41.883Z,7.13
2018-07-17T16:34:10.662Z,7.37
2018-07-17T16:36:39.942Z,8.93
2018-07-17T16:39:08.892Z,6.90
2018-07-17T16:41:38.882Z,8.47
2018-07-17T16:45:10.627Z,7.70
2018-07-17T16:47:39.631Z,7.70
2018-07-17T16:50:08.656Z,8.07
2018-07-17T16:52:39.402Z,7.57
2018-07-17T16:55:08.989Z,7.50
2018-07-17T16:57:38.631Z,7.83
2018-07-17T17:00:07.842Z,8.40
2018-07-17T17:02:37.315Z,7.77
2018-07-17T17:05:07.022Z,8.10
2018-07-17T17:07:37.478Z,7.80
2018-07-17T17:10:07.484Z,9.00
2018-07-17T17:12:36.629Z,8.37
2018-07-17T17:15:06.442Z,8.70
2018-07-17T17:17:35.776Z,8.80
2018-07-17T17:20:06.304Z,9.10
2018-07-17T17:22:36.127Z,8.87
2018-07-17T17:25:07.014Z,8.47
2018-07-17T17:27:36.770Z,8.50
2018-07-17T17:30:05.815Z,9.57
2018-07-17T17:32:34.694Z,8.43
2018-07-17T17:35:03.502Z,8.90
2018-07-17T17:37:32.578Z,9.03
2018-07-17T17:40:01.351Z,9.60
2018-07-17T17:42:30.119Z,7.93
2018-07-17T17:44:58.862Z,8.43
2018-07-17T17:47:27.686Z,9.00
2018-07-17T17:49:56.813Z,8.13
2018-07-17T17:52:25.581Z,8.27
2018-07-17T17:54:55.224Z,9.23
2018-07-17T17:57:25.191Z,7.37
2018-07-17T17:59:53.967Z,9.40
2018-07-17T18:02:23.227Z,8.37
2018-07-17T18:04:52.571Z,8.37
2018-07-17T18:07:22.003Z,7.97
2018-07-17T18:09:51.273Z,8.20
2018-07-17T18:12:20.020Z,7.87
2018-07-17T18:14:48.834Z,8.57
2018-07-17T18:17:17.586Z,8.47
2018-07-17T18:19:47.562Z,8.27
2018-07-17T18:22:16.830Z,7.80
2018-07-17T18:24:46.685Z,8.63
2018-07-17T18:27:15.465Z,8.53
2018-07-17T18:29:44.252Z,9.13
2018-07-17T18:32:13.078Z,9.10
2018-07-17T18:34:41.814Z,8.67
2018-07-17T18:37:10.662Z,9.30
2018-07-17T18:39:39.501Z,8.83
2018-07-17T18:42:08.525Z,9.53
2018-07-17T18:44:37.804Z,8.57
2018-07-17T18:47:06.906Z,8.73
2018-07-17T18:49:36.410Z,8.67
2018-07-17T18:52:05.728Z,9.10
2018-07-17T18:54:34.754Z,8.80
2018-07-17T18:57:06.046Z,9.20
2018-07-17T18:59:34.877Z,8.53
2018-07-17T19:02:04.194Z,9.60
2018-07-17T19:04:33.615Z,9.10
2018-07-17T19:07:03.119Z,8.73
2018-07-17T19:09:31.883Z,9.27
2018-07-17T19:12:00.747Z,8.70
2018-07-17T19:14:29.550Z,8.77
2018-07-17T19:16:58.416Z,8.43
2018-07-17T19:19:27.965Z,8.87
2018-07-17T19:21:56.766Z,8.83
2018-07-17T19:24:26.383Z,9.40
2018-07-17T19:26:55.701Z,8.63
2018-07-17T19:29:24.477Z,7.97
2018-07-17T19:31:53.245Z,8.13
2018-07-17T19:34:22.059Z,9.03
2018-07-17T19:36:50.863Z,8.57
2018-07-17T19:39:19.832Z,8.37
2018-07-17T19:41:48.662Z,9.27
2018-07-17T19:44:17.439Z,8.80
2018-07-17T19:46:46.250Z,8.53
2018-07-17T19:49:15.043Z,8.43
2018-07-17T19:51:44.151Z,8.27
2018-07-17T19:54:13.051Z,8.80
2018-07-17T19:56:42.376Z,8.13
2018-07-17T19:59:11.489Z,7.97
2018-07-17T20:01:40.307Z,8.83
2018-07-17T20:04:09.846Z,8.63
2018-07-17T20:06:39.149Z,8.50
2018-07-17T20:49:20.388Z,10.00
2018-07-17T20:51:49.152Z,9.27
2018-07-17T20:54:17.930Z,9.37
2018-07-17T20:56:47.840Z,9.90
2018-07-17T20:59:16.612Z,10.17
2018-07-17T21:01:46.342Z,10.63
2018-07-17T21:04:16.278Z,9.90
2018-07-17T21:06:45.068Z,10.37
2018-07-17T21:09:13.842Z,10.33
2018-07-17T21:11:42.656Z,10.00
2018-07-17T21:14:11.432Z,10.83
2018-07-17T21:16:41.359Z,12.30
2018-07-17T21:19:10.976Z,9.53
2018-07-17T21:21:40.413Z,10.27
2018-07-17T21:24:09.183Z,9.87
2018-07-17T21:26:38.551Z,9.67
2018-07-17T21:29:07.346Z,9.10
2018-07-17T21:31:36.592Z,10.97
2018-07-17T21:34:05.379Z,9.73
2018-07-17T21:36:34.139Z,9.80
2018-07-17T21:39:03.440Z,9.50
2018-07-17T21:41:32.518Z,9.77
2018-07-17T21:44:01.467Z,9.10
2018-07-17T21:46:31.101Z,9.37
2018-07-17T21:49:00.948Z,10.07
2018-07-17T21:51:30.573Z,9.27
2018-07-17T21:53:59.431Z,10.03
2018-07-17T21:56:28.980Z,10.00
2018-07-17T21:58:57.927Z,10.00
2018-07-17T22:01:26.784Z,9.13
2018-07-17T22:03:56.200Z,9.93
2018-07-17T22:06:25.111Z,9.67
2018-07-17T22:08:53.943Z,10.30
2018-07-17T22:11:22.754Z,9.47
2018-07-17T22:13:51.580Z,10.20
2018-07-17T22:16:21.656Z,10.87
2018-07-17T22:18:51.146Z,10.77
2018-07-17T22:21:20.628Z,10.03
2018-07-17T22:23:49.367Z,10.63
2018-07-17T22:26:18.777Z,10.20
2018-07-17T22:28:47.514Z,10.10
2018-07-17T22:31:16.292Z,10.97
2018-07-17T22:33:45.096Z,12.13
2018-07-17T22:36:13.831Z,10.40
2018-07-17T22:38:42.669Z,10.73
2018-07-17T22:41:11.452Z,9.57
2018-07-17T22:43:40.222Z,10.47
2018-07-17T22:46:08.966Z,11.13
2018-07-17T22:48:38.614Z,10.23
2018-07-17T22:51:07.627Z,10.67
2018-07-17T22:53:36.416Z,9.70
2018-07-17T22:56:05.833Z,11.53
2018-07-17T22:58:34.606Z,10.77
2018-07-17T23:01:03.601Z,11.17
2018-07-17T23:03:33.276Z,10.40
2018-07-17T23:06:02.372Z,10.17
2018-07-17T23:08:31.302Z,10.27
2018-07-17T23:11:00.448Z,10.70
2018-07-17T23:13:30.171Z,9.47
2018-07-17T23:16:00.291Z,9.90
2018-07-17T23:18:29.930Z,10.17
2018-07-17T23:20:59.707Z,11.80
2018-07-17T23:23:28.491Z,10.30
2018-07-17T23:25:58.253Z,10.10
2018-07-17T23:28:27.031Z,9.87
2018-07-17T23:30:55.843Z,10.37
2018-07-17T23:33:25.414Z,11.40
2018-07-17T23:35:55.199Z,9.87
2018-07-17T23:38:24.105Z,9.87
2018-07-17T23:40:52.946Z,10.20
2018-07-17T23:43:21.840Z,11.00
2018-07-17T23:45:50.610Z,10.97
2018-07-17T23:48:19.359Z,11.27
2018-07-17T23:50:49.019Z,11.83
2018-07-17T23:53:17.780Z,10.73
2018-07-17T23:55:47.157Z,10.87
2018-07-17T23:58:16.003Z,10.93
